sensor_id;sensor_type;location;lat;lon;timestamp;temperature;humidity
7240;DHT22;3661;53.288;10.458;2022-09-01T00:02:30;13.10;99.90
7240;DHT22;3661;53.288;10.458;2022-09-01T00:05:06;13.20;99.90
7240;DHT22;3661;53.288;10.458;2022-09-01T00:07:38;13.10;99.90
7240;DHT22;3661;53.288;10.458;2022-09-01T00:10:10;13.10;99.90
7240;DHT22;3661;53.288;10.458;2022-09-01T00:12:42;13.10;99.90
7240;DHT22;3661;53.288;10.458;2022-09-01T00:15:15;13.10;99.90
7240;DHT22;3661;53.288;10.458;2022-09-01T00:17:47;13.00;99.90
7240;DHT22;3661;53.288;10.458;2022-09-01T00:20:21;13.00;99.90
7240;DHT22;3661;53.288;10.458;2022-09-01T00:22:53;13.00;99.90
7240;DHT22;3661;53.288;10.458;2022-09-01T00:25:26;13.00;99.90
7240;DHT22;3661;53.288;10.458;2022-09-01T00:27:59;13.00;99.90
7240;DHT22;3661;53.288;10.458;2022-09-01T00:30:34;13.00;99.90
7240;DHT22;3661;53.288;10.458;2022-09-01T00:33:06;13.00;99.90
7240;DHT22;3661;53.288;10.458;2022-09-01T00:35:40;13.00;99.90
7240;DHT22;3661;53.288;10.458;2022-09-01T00:38:12;13.00;99.90
7240;DHT22;3661;53.288;10.458;2022-09-01T00:40:45;13.00;99.90
7240;DHT22;3661;53.288;10.458;2022-09-01T00:43:20;12.90;99.90
7240;DHT22;3661;53.288;10.458;2022-09-01T00:45:53;12.90;99.90
7240;DHT22;3661;53.288;10.458;2022-09-01T00:48:27;13.00;99.90
7240;DHT22;3661;53.288;10.458;2022-09-01T00:51:01;12.90;99.90
7240;DHT22;3661;53.288;10.458;2022-09-01T00:53:34;12.90;99.90
7240;DHT22;3661;53.288;10.458;2022-09-01T00:56:07;12.90;99.90
7240;DHT22;3661;53.288;10.458;2022-09-01T00:58:40;12.90;99.90
7240;DHT22;3661;53.288;10.458;2022-09-01T01:01:13;12.90;99.90
7240;DHT22;3661;53.288;10.458;2022-09-01T01:03:46;12.80;99.90
7240;DHT22;3661;53.288;10.458;2022-09-01T01:06:19;12.80;99.90
7240;DHT22;3661;53.288;10.458;2022-09-01T01:08:56;12.80;99.90
7240;DHT22;3661;53.288;10.458;2022-09-01T01:11:31;12.80;99.90
7240;DHT22;3661;53.288;10.458;2022-09-01T01:14:06;12.80;99.90
7240;DHT22;3661;53.288;10.458;2022-09-01T01:16:43;12.70;99.90
7240;DHT22;3661;53.288;10.458;2022-09-01T01:19:21;12.70;99.90
7240;DHT22;3661;53.288;10.458;2022-09-01T01:22:13;12.70;99.90
7240;DHT22;3661;53.288;10.458;2022-09-01T01:25:08;12.70;99.90
7240;DHT22;3661;53.288;10.458;2022-09-01T01:27:42;12.60;99.90
7240;DHT22;3661;53.288;10.458;2022-09-01T01:30:15;12.60;99.90
7240;DHT22;3661;53.288;10.458;2022-09-01T01:32:49;12.60;99.90
7240;DHT22;3661;53.288;10.458;2022-09-01T01:35:21;12.60;99.90
7240;DHT22;3661;53.288;10.458;2022-09-01T01:37:54;12.60;99.90
7240;DHT22;3661;53.288;10.458;2022-09-01T01:40:28;12.50;99.90
7240;DHT22;3661;53.288;10.458;2022-09-01T01:43:00;12.50;99.90
7240;DHT22;3661;53.288;10.458;2022-09-01T01:45:33;12.50;99.90
7240;DHT22;3661;53.288;10.458;2022-09-01T01:48:08;12.50;99.90
7240;DHT22;3661;53.288;10.458;2022-09-01T01:50:41;12.50;99.90
7240;DHT22;3661;53.288;10.458;2022-09-01T01:53:19;12.50;99.90
7240;DHT22;3661;53.288;10.458;2022-09-01T01:55:53;12.50;99.90
7240;DHT22;3661;53.288;10.458;2022-09-01T01:58:26;12.50;99.90
7240;DHT22;3661;53.288;10.458;2022-09-01T02:00:58;12.50;99.90
7240;DHT22;3661;53.288;10.458;2022-09-01T02:03:32;12.50;99.90
7240;DHT22;3661;53.288;10.458;2022-09-01T02:06:09;12.50;99.90
7240;DHT22;3661;53.288;10.458;2022-09-01T02:08:42;12.50;99.90
7240;DHT22;3661;53.288;10.458;2022-09-01T02:11:15;12.50;99.90
7240;DHT22;3661;53.288;10.458;2022-09-01T02:13:48;12.50;99.90
7240;DHT22;3661;53.288;10.458;2022-09-01T02:16:21;12.50;99.90
7240;DHT22;3661;53.288;10.458;2022-09-01T02:18:54;12.50;99.90
7240;DHT22;3661;53.288;10.458;2022-09-01T02:21:26;12.50;99.90
7240;DHT22;3661;53.288;10.458;2022-09-01T02:24:01;12.50;99.90
7240;DHT22;3661;53.288;10.458;2022-09-01T02:26:39;12.40;99.90
7240;DHT22;3661;53.288;10.458;2022-09-01T02:29:14;12.40;99.90
7240;DHT22;3661;53.288;10.458;2022-09-01T02:31:52;12.40;99.90
7240;DHT22;3661;53.288;10.458;2022-09-01T02:34:25;12.40;99.90
7240;DHT22;3661;53.288;10.458;2022-09-01T02:36:58;12.40;99.90
7240;DHT22;3661;53.288;10.458;2022-09-01T02:39:30;12.30;99.90
7240;DHT22;3661;53.288;10.458;2022-09-01T02:42:05;12.30;99.90
7240;DHT22;3661;53.288;10.458;2022-09-01T02:44:38;12.30;99.90
7240;DHT22;3661;53.288;10.458;2022-09-01T02:47:10;12.20;99.90
7240;DHT22;3661;53.288;10.458;2022-09-01T02:49:42;12.20;99.90
7240;DHT22;3661;53.288;10.458;2022-09-01T02:52:16;12.20;99.90
7240;DHT22;3661;53.288;10.458;2022-09-01T02:54:50;12.20;99.90
7240;DHT22;3661;53.288;10.458;2022-09-01T02:57:24;12.20;99.90
7240;DHT22;3661;53.288;10.458;2022-09-01T02:59:57;12.10;99.90
7240;DHT22;3661;53.288;10.458;2022-09-01T03:02:29;12.20;99.90
7240;DHT22;3661;53.288;10.458;2022-09-01T03:05:04;12.10;99.90
7240;DHT22;3661;53.288;10.458;2022-09-01T03:07:37;12.10;99.90
7240;DHT22;3661;53.288;10.458;2022-09-01T03:10:12;12.10;99.90
7240;DHT22;3661;53.288;10.458;2022-09-01T03:12:47;12.10;99.90
7240;DHT22;3661;53.288;10.458;2022-09-01T03:15:19;12.10;99.90
7240;DHT22;3661;53.288;10.458;2022-09-01T03:17:53;12.10;99.90
7240;DHT22;3661;53.288;10.458;2022-09-01T03:20:25;12.10;99.90
7240;DHT22;3661;53.288;10.458;2022-09-01T03:22:57;12.10;99.90
7240;DHT22;3661;53.288;10.458;2022-09-01T03:25:30;12.10;99.90
7240;DHT22;3661;53.288;10.458;2022-09-01T03:28:05;12.10;99.90
7240;DHT22;3661;53.288;10.458;2022-09-01T03:30:39;12.00;99.90
7240;DHT22;3661;53.288;10.458;2022-09-01T03:33:16;12.00;99.90
7240;DHT22;3661;53.288;10.458;2022-09-01T03:35:49;12.00;99.90
7240;DHT22;3661;53.288;10.458;2022-09-01T03:38:22;12.00;99.90
7240;DHT22;3661;53.288;10.458;2022-09-01T03:40:57;11.90;99.90
7240;DHT22;3661;53.288;10.458;2022-09-01T03:43:33;11.90;99.90
7240;DHT22;3661;53.288;10.458;2022-09-01T03:46:05;11.90;99.90
7240;DHT22;3661;53.288;10.458;2022-09-01T03:48:39;11.90;99.90
7240;DHT22;3661;53.288;10.458;2022-09-01T03:51:12;11.90;99.90
7240;DHT22;3661;53.288;10.458;2022-09-01T03:53:44;11.80;99.90
7240;DHT22;3661;53.288;10.458;2022-09-01T03:56:17;11.80;99.90
7240;DHT22;3661;53.288;10.458;2022-09-01T03:58:50;11.80;99.90
7240;DHT22;3661;53.288;10.458;2022-09-01T04:01:24;11.80;99.90
7240;DHT22;3661;53.288;10.458;2022-09-01T04:03:56;11.80;99.90
7240;DHT22;3661;53.288;10.458;2022-09-01T04:06:28;11.70;99.90
7240;DHT22;3661;53.288;10.458;2022-09-01T04:09:00;11.70;99.90
7240;DHT22;3661;53.288;10.458;2022-09-01T04:11:33;11.70;99.90
7240;DHT22;3661;53.288;10.458;2022-09-01T04:14:09;11.60;99.90
7240;DHT22;3661;53.288;10.458;2022-09-01T04:16:43;11.60;99.90
7240;DHT22;3661;53.288;10.458;2022-09-01T04:19:34;11.60;99.90
7240;DHT22;3661;53.288;10.458;2022-09-01T04:22:08;11.50;99.90
7240;DHT22;3661;53.288;10.458;2022-09-01T04:24:47;11.50;99.90
7240;DHT22;3661;53.288;10.458;2022-09-01T04:27:19;11.50;99.90
7240;DHT22;3661;53.288;10.458;2022-09-01T04:29:58;11.50;99.90
7240;DHT22;3661;53.288;10.458;2022-09-01T04:32:31;11.40;99.90
7240;DHT22;3661;53.288;10.458;2022-09-01T04:35:06;11.40;99.90
7240;DHT22;3661;53.288;10.458;2022-09-01T04:37:41;11.40;99.90
7240;DHT22;3661;53.288;10.458;2022-09-01T04:40:13;11.40;99.90
7240;DHT22;3661;53.288;10.458;2022-09-01T04:42:47;11.30;99.90
7240;DHT22;3661;53.288;10.458;2022-09-01T04:45:20;11.30;99.90
7240;DHT22;3661;53.288;10.458;2022-09-01T04:47:57;11.30;99.90
7240;DHT22;3661;53.288;10.458;2022-09-01T04:50:30;11.30;99.90
7240;DHT22;3661;53.288;10.458;2022-09-01T04:53:05;11.20;99.90
7240;DHT22;3661;53.288;10.458;2022-09-01T04:55:38;11.20;99.90
7240;DHT22;3661;53.288;10.458;2022-09-01T04:58:15;11.20;99.90
7240;DHT22;3661;53.288;10.458;2022-09-01T05:00:49;11.10;99.90
7240;DHT22;3661;53.288;10.458;2022-09-01T05:03:22;11.10;99.90
7240;DHT22;3661;53.288;10.458;2022-09-01T05:05:55;11.10;99.90
7240;DHT22;3661;53.288;10.458;2022-09-01T05:08:29;11.10;99.90
7240;DHT22;3661;53.288;10.458;2022-09-01T05:11:05;11.00;99.90
7240;DHT22;3661;53.288;10.458;2022-09-01T05:13:38;11.00;99.90
7240;DHT22;3661;53.288;10.458;2022-09-01T05:16:13;11.00;99.90
7240;DHT22;3661;53.288;10.458;2022-09-01T05:18:47;11.00;99.90
7240;DHT22;3661;53.288;10.458;2022-09-01T05:21:21;11.00;99.90
7240;DHT22;3661;53.288;10.458;2022-09-01T05:23:58;11.00;99.90
7240;DHT22;3661;53.288;10.458;2022-09-01T05:26:32;11.10;99.90
7240;DHT22;3661;53.288;10.458;2022-09-01T05:29:05;11.10;99.90
7240;DHT22;3661;53.288;10.458;2022-09-01T05:31:42;11.20;99.90
7240;DHT22;3661;53.288;10.458;2022-09-01T05:34:15;11.20;99.90
7240;DHT22;3661;53.288;10.458;2022-09-01T05:36:57;11.30;99.90
7240;DHT22;3661;53.288;10.458;2022-09-01T05:39:30;11.30;99.90
7240;DHT22;3661;53.288;10.458;2022-09-01T05:42:02;11.40;99.90
7240;DHT22;3661;53.288;10.458;2022-09-01T05:44:38;11.40;99.90
7240;DHT22;3661;53.288;10.458;2022-09-01T05:47:15;11.50;99.90
7240;DHT22;3661;53.288;10.458;2022-09-01T05:49:47;11.50;99.90
7240;DHT22;3661;53.288;10.458;2022-09-01T05:52:20;11.60;99.90
7240;DHT22;3661;53.288;10.458;2022-09-01T05:54:55;11.60;99.90
7240;DHT22;3661;53.288;10.458;2022-09-01T05:57:27;11.70;99.90
7240;DHT22;3661;53.288;10.458;2022-09-01T05:59:59;11.80;99.90
7240;DHT22;3661;53.288;10.458;2022-09-01T06:02:34;11.80;99.90
7240;DHT22;3661;53.288;10.458;2022-09-01T06:05:08;11.80;99.90
7240;DHT22;3661;53.288;10.458;2022-09-01T06:07:41;11.90;99.90
7240;DHT22;3661;53.288;10.458;2022-09-01T06:10:14;11.90;99.90
7240;DHT22;3661;53.288;10.458;2022-09-01T06:12:46;12.00;99.90
7240;DHT22;3661;53.288;10.458;2022-09-01T06:15:20;12.10;99.90
7240;DHT22;3661;53.288;10.458;2022-09-01T06:17:53;12.10;99.90
7240;DHT22;3661;53.288;10.458;2022-09-01T06:20:26;12.10;99.90
7240;DHT22;3661;53.288;10.458;2022-09-01T06:23:00;12.20;99.90
7240;DHT22;3661;53.288;10.458;2022-09-01T06:25:35;12.20;99.90
7240;DHT22;3661;53.288;10.458;2022-09-01T06:28:09;12.30;99.90
7240;DHT22;3661;53.288;10.458;2022-09-01T06:30:42;12.30;99.90
7240;DHT22;3661;53.288;10.458;2022-09-01T06:33:17;12.40;99.90
7240;DHT22;3661;53.288;10.458;2022-09-01T06:35:51;12.50;99.90
7240;DHT22;3661;53.288;10.458;2022-09-01T06:38:25;12.50;99.90
7240;DHT22;3661;53.288;10.458;2022-09-01T06:41:01;12.60;99.90
7240;DHT22;3661;53.288;10.458;2022-09-01T06:43:35;12.70;99.90
7240;DHT22;3661;53.288;10.458;2022-09-01T06:46:09;12.80;99.90
7240;DHT22;3661;53.288;10.458;2022-09-01T06:48:44;12.80;99.90
7240;DHT22;3661;53.288;10.458;2022-09-01T06:51:19;12.90;99.90
7240;DHT22;3661;53.288;10.458;2022-09-01T06:53:52;13.00;99.90
7240;DHT22;3661;53.288;10.458;2022-09-01T06:56:27;13.10;99.90
7240;DHT22;3661;53.288;10.458;2022-09-01T06:59:01;13.20;99.90
7240;DHT22;3661;53.288;10.458;2022-09-01T07:01:35;13.30;99.90
7240;DHT22;3661;53.288;10.458;2022-09-01T07:04:10;13.30;99.90
7240;DHT22;3661;53.288;10.458;2022-09-01T07:06:42;13.40;99.90
7240;DHT22;3661;53.288;10.458;2022-09-01T07:09:22;13.50;99.90
7240;DHT22;3661;53.288;10.458;2022-09-01T07:11:54;13.60;99.90
7240;DHT22;3661;53.288;10.458;2022-09-01T07:14:26;13.70;99.90
7240;DHT22;3661;53.288;10.458;2022-09-01T07:16:58;13.70;99.90
7240;DHT22;3661;53.288;10.458;2022-09-01T07:19:32;13.80;99.90
7240;DHT22;3661;53.288;10.458;2022-09-01T07:22:05;13.90;99.90
7240;DHT22;3661;53.288;10.458;2022-09-01T07:24:37;14.00;99.90
7240;DHT22;3661;53.288;10.458;2022-09-01T07:27:09;14.10;99.90
7240;DHT22;3661;53.288;10.458;2022-09-01T07:29:42;14.10;99.90
7240;DHT22;3661;53.288;10.458;2022-09-01T07:32:14;14.20;99.90
7240;DHT22;3661;53.288;10.458;2022-09-01T07:34:47;14.30;99.90
7240;DHT22;3661;53.288;10.458;2022-09-01T07:37:20;14.40;99.90
7240;DHT22;3661;53.288;10.458;2022-09-01T07:39:52;14.50;99.90
7240;DHT22;3661;53.288;10.458;2022-09-01T07:42:24;14.60;99.90
7240;DHT22;3661;53.288;10.458;2022-09-01T07:44:57;14.70;99.90
7240;DHT22;3661;53.288;10.458;2022-09-01T07:47:29;14.80;99.90
7240;DHT22;3661;53.288;10.458;2022-09-01T07:50:03;14.90;99.90
7240;DHT22;3661;53.288;10.458;2022-09-01T07:52:38;15.00;99.90
7240;DHT22;3661;53.288;10.458;2022-09-01T07:55:14;15.10;99.90
7240;DHT22;3661;53.288;10.458;2022-09-01T07:57:47;15.20;99.90
7240;DHT22;3661;53.288;10.458;2022-09-01T08:00:19;15.30;99.90
7240;DHT22;3661;53.288;10.458;2022-09-01T08:02:51;15.50;99.90
7240;DHT22;3661;53.288;10.458;2022-09-01T08:05:25;15.60;99.90
7240;DHT22;3661;53.288;10.458;2022-09-01T08:07:58;15.70;99.90
7240;DHT22;3661;53.288;10.458;2022-09-01T08:10:30;15.90;99.90
7240;DHT22;3661;53.288;10.458;2022-09-01T08:13:03;16.00;99.90
7240;DHT22;3661;53.288;10.458;2022-09-01T08:15:36;16.20;99.90
7240;DHT22;3661;53.288;10.458;2022-09-01T08:18:09;16.50;99.90
7240;DHT22;3661;53.288;10.458;2022-09-01T08:20:44;16.70;99.90
7240;DHT22;3661;53.288;10.458;2022-09-01T08:23:18;16.90;99.90
7240;DHT22;3661;53.288;10.458;2022-09-01T08:25:53;17.10;99.90
7240;DHT22;3661;53.288;10.458;2022-09-01T08:28:25;17.30;99.90
7240;DHT22;3661;53.288;10.458;2022-09-01T08:30:57;17.50;99.90
7240;DHT22;3661;53.288;10.458;2022-09-01T08:33:30;17.80;99.90
7240;DHT22;3661;53.288;10.458;2022-09-01T08:36:09;17.90;99.90
7240;DHT22;3661;53.288;10.458;2022-09-01T08:38:41;18.20;99.90
7240;DHT22;3661;53.288;10.458;2022-09-01T08:41:16;18.40;99.90
7240;DHT22;3661;53.288;10.458;2022-09-01T08:43:59;18.60;99.90
7240;DHT22;3661;53.288;10.458;2022-09-01T08:46:38;18.80;99.90
7240;DHT22;3661;53.288;10.458;2022-09-01T08:49:15;19.00;99.90
7240;DHT22;3661;53.288;10.458;2022-09-01T08:51:56;19.20;99.90
7240;DHT22;3661;53.288;10.458;2022-09-01T08:54:37;19.30;99.90
7240;DHT22;3661;53.288;10.458;2022-09-01T08:57:16;19.50;99.90
7240;DHT22;3661;53.288;10.458;2022-09-01T08:59:49;19.70;99.90
7240;DHT22;3661;53.288;10.458;2022-09-01T09:05:36;20.10;99.90
7240;DHT22;3661;53.288;10.458;2022-09-01T09:08:29;20.30;99.90
7240;DHT22;3661;53.288;10.458;2022-09-01T09:14:32;20.80;99.90
7240;DHT22;3661;53.288;10.458;2022-09-01T09:17:08;21.10;99.90
7240;DHT22;3661;53.288;10.458;2022-09-01T09:19:42;21.30;99.90
7240;DHT22;3661;53.288;10.458;2022-09-01T09:22:17;21.40;99.90
7240;DHT22;3661;53.288;10.458;2022-09-01T09:24:53;21.60;99.90
7240;DHT22;3661;53.288;10.458;2022-09-01T09:27:32;21.80;99.90
7240;DHT22;3661;53.288;10.458;2022-09-01T09:30:07;22.20;99.90
7240;DHT22;3661;53.288;10.458;2022-09-01T09:32:47;22.50;99.90
7240;DHT22;3661;53.288;10.458;2022-09-01T09:35:24;22.70;99.90
7240;DHT22;3661;53.288;10.458;2022-09-01T09:38:15;23.00;99.90
7240;DHT22;3661;53.288;10.458;2022-09-01T09:40:58;23.10;99.90
7240;DHT22;3661;53.288;10.458;2022-09-01T09:43:34;23.40;99.90
7240;DHT22;3661;53.288;10.458;2022-09-01T09:46:26;23.40;97.70
7240;DHT22;3661;53.288;10.458;2022-09-01T09:49:14;23.60;99.90
7240;DHT22;3661;53.288;10.458;2022-09-01T09:51:50;23.70;96.80
7240;DHT22;3661;53.288;10.458;2022-09-01T09:54:25;23.70;95.20
7240;DHT22;3661;53.288;10.458;2022-09-01T09:57:10;23.80;95.40
7240;DHT22;3661;53.288;10.458;2022-09-01T09:59:46;24.00;97.00
7240;DHT22;3661;53.288;10.458;2022-09-01T10:02:24;24.20;96.20
7240;DHT22;3661;53.288;10.458;2022-09-01T10:04:58;24.20;94.30
7240;DHT22;3661;53.288;10.458;2022-09-01T10:07:33;24.40;94.10
7240;DHT22;3661;53.288;10.458;2022-09-01T10:12:57;24.70;92.60
7240;DHT22;3661;53.288;10.458;2022-09-01T10:15:32;24.80;92.10
7240;DHT22;3661;53.288;10.458;2022-09-01T10:18:06;25.00;92.00
7240;DHT22;3661;53.288;10.458;2022-09-01T10:20:45;25.10;92.10
7240;DHT22;3661;53.288;10.458;2022-09-01T10:23:19;25.20;91.10
7240;DHT22;3661;53.288;10.458;2022-09-01T10:25:53;25.40;91.70
7240;DHT22;3661;53.288;10.458;2022-09-01T10:28:31;25.60;91.20
7240;DHT22;3661;53.288;10.458;2022-09-01T10:31:04;25.80;92.20
7240;DHT22;3661;53.288;10.458;2022-09-01T10:33:36;26.10;92.40
7240;DHT22;3661;53.288;10.458;2022-09-01T10:36:09;26.40;91.50
7240;DHT22;3661;53.288;10.458;2022-09-01T10:38:42;26.40;87.20
7240;DHT22;3661;53.288;10.458;2022-09-01T10:44:54;26.30;85.90
7240;DHT22;3661;53.288;10.458;2022-09-01T10:47:30;26.40;85.10
7240;DHT22;3661;53.288;10.458;2022-09-01T10:50:23;26.40;85.40
7240;DHT22;3661;53.288;10.458;2022-09-01T10:53:27;26.50;85.60
7240;DHT22;3661;53.288;10.458;2022-09-01T10:56:09;26.80;90.70
7240;DHT22;3661;53.288;10.458;2022-09-01T10:59:00;27.20;91.10
7240;DHT22;3661;53.288;10.458;2022-09-01T11:02:07;27.50;84.90
7240;DHT22;3661;53.288;10.458;2022-09-01T11:05:10;27.40;81.40
7240;DHT22;3661;53.288;10.458;2022-09-01T11:07:42;27.10;80.70
7240;DHT22;3661;53.288;10.458;2022-09-01T11:10:32;26.90;80.90
7240;DHT22;3661;53.288;10.458;2022-09-01T11:16:32;26.70;82.40
7240;DHT22;3661;53.288;10.458;2022-09-01T11:19:34;27.00;87.80
7240;DHT22;3661;53.288;10.458;2022-09-01T11:22:38;27.40;84.80
7240;DHT22;3661;53.288;10.458;2022-09-01T11:25:37;27.70;85.20
7240;DHT22;3661;53.288;10.458;2022-09-01T11:28:43;27.80;82.00
7240;DHT22;3661;53.288;10.458;2022-09-01T11:31:23;27.80;78.80
7240;DHT22;3661;53.288;10.458;2022-09-01T11:34:10;27.90;83.60
7240;DHT22;3661;53.288;10.458;2022-09-01T11:36:53;28.10;85.60
7240;DHT22;3661;53.288;10.458;2022-09-01T11:39:40;28.50;81.90
7240;DHT22;3661;53.288;10.458;2022-09-01T11:42:17;28.70;82.50
7240;DHT22;3661;53.288;10.458;2022-09-01T11:44:53;28.70;77.50
7240;DHT22;3661;53.288;10.458;2022-09-01T11:47:31;28.50;76.40
7240;DHT22;3661;53.288;10.458;2022-09-01T11:50:17;28.30;75.90
7240;DHT22;3661;53.288;10.458;2022-09-01T11:52:56;28.20;79.10
7240;DHT22;3661;53.288;10.458;2022-09-01T11:55:31;28.40;84.50
7240;DHT22;3661;53.288;10.458;2022-09-01T11:58:04;28.80;86.20
7240;DHT22;3661;53.288;10.458;2022-09-01T12:00:40;29.10;87.00
7240;DHT22;3661;53.288;10.458;2022-09-01T12:03:19;29.20;78.50
7240;DHT22;3661;53.288;10.458;2022-09-01T12:05:55;29.20;77.80
7240;DHT22;3661;53.288;10.458;2022-09-01T12:08:32;29.10;77.20
7240;DHT22;3661;53.288;10.458;2022-09-01T12:11:07;29.10;75.90
7240;DHT22;3661;53.288;10.458;2022-09-01T12:13:40;29.20;81.80
7240;DHT22;3661;53.288;10.458;2022-09-01T12:16:25;29.40;78.80
7240;DHT22;3661;53.288;10.458;2022-09-01T12:18:58;29.40;73.80
7240;DHT22;3661;53.288;10.458;2022-09-01T12:21:32;29.10;72.50
7240;DHT22;3661;53.288;10.458;2022-09-01T12:24:17;28.90;72.60
7240;DHT22;3661;53.288;10.458;2022-09-01T12:26:52;28.60;72.60
7240;DHT22;3661;53.288;10.458;2022-09-01T12:29:25;28.20;71.70
7240;DHT22;3661;53.288;10.458;2022-09-01T12:31:58;27.90;72.20
7240;DHT22;3661;53.288;10.458;2022-09-01T12:34:39;27.70;73.50
7240;DHT22;3661;53.288;10.458;2022-09-01T12:37:20;27.50;74.20
7240;DHT22;3661;53.288;10.458;2022-09-01T12:39:56;27.30;73.50
7240;DHT22;3661;53.288;10.458;2022-09-01T12:42:30;27.00;73.80
7240;DHT22;3661;53.288;10.458;2022-09-01T12:45:05;26.80;74.50
7240;DHT22;3661;53.288;10.458;2022-09-01T12:47:59;26.50;75.00
7240;DHT22;3661;53.288;10.458;2022-09-01T12:50:43;26.40;75.60
7240;DHT22;3661;53.288;10.458;2022-09-01T12:53:22;26.10;75.00
7240;DHT22;3661;53.288;10.458;2022-09-01T12:56:13;25.90;75.30
7240;DHT22;3661;53.288;10.458;2022-09-01T12:58:50;25.60;75.00
7240;DHT22;3661;53.288;10.458;2022-09-01T13:01:35;25.50;76.40
7240;DHT22;3661;53.288;10.458;2022-09-01T13:07:01;25.30;76.40
7240;DHT22;3661;53.288;10.458;2022-09-01T13:09:33;25.00;77.30
7240;DHT22;3661;53.288;10.458;2022-09-01T13:12:18;24.80;76.50
7240;DHT22;3661;53.288;10.458;2022-09-01T13:14:50;24.60;76.40
7240;DHT22;3661;53.288;10.458;2022-09-01T13:17:22;24.50;77.30
7240;DHT22;3661;53.288;10.458;2022-09-01T13:19:54;24.40;77.60
7240;DHT22;3661;53.288;10.458;2022-09-01T13:22:27;24.20;77.50
7240;DHT22;3661;53.288;10.458;2022-09-01T13:25:02;24.10;77.90
7240;DHT22;3661;53.288;10.458;2022-09-01T13:27:36;24.00;78.70
7240;DHT22;3661;53.288;10.458;2022-09-01T13:30:15;23.90;78.50
7240;DHT22;3661;53.288;10.458;2022-09-01T13:32:48;23.90;78.40
7240;DHT22;3661;53.288;10.458;2022-09-01T13:35:22;23.70;78.90
7240;DHT22;3661;53.288;10.458;2022-09-01T13:37:55;23.70;79.10
7240;DHT22;3661;53.288;10.458;2022-09-01T13:40:27;23.70;79.60
7240;DHT22;3661;53.288;10.458;2022-09-01T13:43:00;23.60;79.30
7240;DHT22;3661;53.288;10.458;2022-09-01T13:45:34;23.50;79.00
7240;DHT22;3661;53.288;10.458;2022-09-01T13:48:08;23.40;79.30
7240;DHT22;3661;53.288;10.458;2022-09-01T13:50:41;23.30;79.70
7240;DHT22;3661;53.288;10.458;2022-09-01T13:53:14;23.30;80.00
7240;DHT22;3661;53.288;10.458;2022-09-01T13:55:47;23.20;80.30
7240;DHT22;3661;53.288;10.458;2022-09-01T13:58:21;23.10;80.90
7240;DHT22;3661;53.288;10.458;2022-09-01T14:00:53;23.00;81.00
7240;DHT22;3661;53.288;10.458;2022-09-01T14:03:26;23.00;81.40
7240;DHT22;3661;53.288;10.458;2022-09-01T14:06:01;23.00;81.40
7240;DHT22;3661;53.288;10.458;2022-09-01T14:08:34;23.10;81.70
7240;DHT22;3661;53.288;10.458;2022-09-01T14:11:06;23.10;81.70
7240;DHT22;3661;53.288;10.458;2022-09-01T14:13:40;23.20;81.30
7240;DHT22;3661;53.288;10.458;2022-09-01T14:16:14;23.30;81.40
7240;DHT22;3661;53.288;10.458;2022-09-01T14:18:46;23.50;82.00
7240;DHT22;3661;53.288;10.458;2022-09-01T14:21:18;23.60;81.90
7240;DHT22;3661;53.288;10.458;2022-09-01T14:23:50;23.90;82.10
7240;DHT22;3661;53.288;10.458;2022-09-01T14:26:22;24.00;82.10
7240;DHT22;3661;53.288;10.458;2022-09-01T14:28:58;24.10;81.90
7240;DHT22;3661;53.288;10.458;2022-09-01T14:31:30;24.20;81.70
7240;DHT22;3661;53.288;10.458;2022-09-01T14:34:04;24.20;81.60
7240;DHT22;3661;53.288;10.458;2022-09-01T14:36:37;24.20;81.70
7240;DHT22;3661;53.288;10.458;2022-09-01T14:39:09;24.10;81.80
7240;DHT22;3661;53.288;10.458;2022-09-01T14:41:41;24.00;81.80
7240;DHT22;3661;53.288;10.458;2022-09-01T14:44:15;23.90;81.90
7240;DHT22;3661;53.288;10.458;2022-09-01T14:46:47;23.70;81.90
7240;DHT22;3661;53.288;10.458;2022-09-01T14:49:19;23.70;82.20
7240;DHT22;3661;53.288;10.458;2022-09-01T14:51:51;23.60;82.40
7240;DHT22;3661;53.288;10.458;2022-09-01T14:54:25;23.60;82.60
7240;DHT22;3661;53.288;10.458;2022-09-01T14:56:57;23.60;82.10
7240;DHT22;3661;53.288;10.458;2022-09-01T14:59:31;23.70;81.70
7240;DHT22;3661;53.288;10.458;2022-09-01T15:02:04;23.80;81.40
7240;DHT22;3661;53.288;10.458;2022-09-01T15:04:36;23.90;81.20
7240;DHT22;3661;53.288;10.458;2022-09-01T15:07:08;24.00;81.80
7240;DHT22;3661;53.288;10.458;2022-09-01T15:09:42;24.10;80.70
7240;DHT22;3661;53.288;10.458;2022-09-01T15:12:15;24.30;80.70
7240;DHT22;3661;53.288;10.458;2022-09-01T15:14:50;24.40;80.10
7240;DHT22;3661;53.288;10.458;2022-09-01T15:17:23;24.60;79.70
7240;DHT22;3661;53.288;10.458;2022-09-01T15:19:55;24.70;80.10
7240;DHT22;3661;53.288;10.458;2022-09-01T15:22:48;24.70;80.40
7240;DHT22;3661;53.288;10.458;2022-09-01T15:25:21;24.80;80.60
7240;DHT22;3661;53.288;10.458;2022-09-01T15:27:53;24.90;80.60
7240;DHT22;3661;53.288;10.458;2022-09-01T15:30:28;25.00;80.00
7240;DHT22;3661;53.288;10.458;2022-09-01T15:33:01;25.10;79.80
7240;DHT22;3661;53.288;10.458;2022-09-01T15:35:34;25.10;79.70
7240;DHT22;3661;53.288;10.458;2022-09-01T15:38:06;25.20;79.40
7240;DHT22;3661;53.288;10.458;2022-09-01T15:40:40;25.30;79.30
7240;DHT22;3661;53.288;10.458;2022-09-01T15:43:14;25.40;79.00
7240;DHT22;3661;53.288;10.458;2022-09-01T15:45:48;25.50;78.50
7240;DHT22;3661;53.288;10.458;2022-09-01T15:48:20;25.50;78.50
7240;DHT22;3661;53.288;10.458;2022-09-01T15:50:52;25.60;78.30
7240;DHT22;3661;53.288;10.458;2022-09-01T15:53:26;25.70;78.50
7240;DHT22;3661;53.288;10.458;2022-09-01T15:55:58;25.80;78.50
7240;DHT22;3661;53.288;10.458;2022-09-01T15:58:30;25.80;77.00
7240;DHT22;3661;53.288;10.458;2022-09-01T16:01:04;25.80;76.60
7240;DHT22;3661;53.288;10.458;2022-09-01T16:03:36;25.70;77.30
7240;DHT22;3661;53.288;10.458;2022-09-01T16:06:09;25.60;77.50
7240;DHT22;3661;53.288;10.458;2022-09-01T16:08:44;25.50;78.00
7240;DHT22;3661;53.288;10.458;2022-09-01T16:11:16;25.40;78.20
7240;DHT22;3661;53.288;10.458;2022-09-01T16:13:49;25.30;78.10
7240;DHT22;3661;53.288;10.458;2022-09-01T16:16:40;25.20;78.60
7240;DHT22;3661;53.288;10.458;2022-09-01T16:19:23;25.10;78.80
7240;DHT22;3661;53.288;10.458;2022-09-01T16:22:03;24.90;78.60
7240;DHT22;3661;53.288;10.458;2022-09-01T16:24:40;24.70;78.80
7240;DHT22;3661;53.288;10.458;2022-09-01T16:27:15;24.50;79.40
7240;DHT22;3661;53.288;10.458;2022-09-01T16:29:49;24.30;79.50
7240;DHT22;3661;53.288;10.458;2022-09-01T16:32:24;24.10;79.70
7240;DHT22;3661;53.288;10.458;2022-09-01T16:34:56;24.00;80.00
7240;DHT22;3661;53.288;10.458;2022-09-01T16:37:40;23.80;79.90
7240;DHT22;3661;53.288;10.458;2022-09-01T16:40:24;23.70;79.70
7240;DHT22;3661;53.288;10.458;2022-09-01T16:43:05;23.50;79.70
7240;DHT22;3661;53.288;10.458;2022-09-01T16:45:46;23.30;80.30
7240;DHT22;3661;53.288;10.458;2022-09-01T16:48:32;23.20;80.60
7240;DHT22;3661;53.288;10.458;2022-09-01T16:51:14;23.00;81.00
7240;DHT22;3661;53.288;10.458;2022-09-01T16:53:57;22.90;81.10
7240;DHT22;3661;53.288;10.458;2022-09-01T16:56:35;22.80;81.40
7240;DHT22;3661;53.288;10.458;2022-09-01T16:59:20;22.60;81.70